sensor_id;sensor_type;location;lat;lon;timestamp;P1;durP1;ratioP1;P2;durP2;ratioP2
4089;SDS011;2059;48.538;12.146;2022-09-09T00:05:00;1.60;;;1.60;;
4089;SDS011;2059;48.538;12.146;2022-09-09T00:10:21;1.57;;;1.57;;
4089;SDS011;2059;48.538;12.146;2022-09-09T00:15:30;1.50;;;1.50;;
4089;SDS011;2059;48.538;12.146;2022-09-09T00:20:39;1.50;;;1.50;;
4089;SDS011;2059;48.538;12.146;2022-09-09T00:25:49;1.77;;;1.67;;
4089;SDS011;2059;48.538;12.146;2022-09-09T00:31:04;1.50;;;1.50;;
4089;SDS011;2059;48.538;12.146;2022-09-09T00:36:14;1.50;;;1.50;;
4089;SDS011;2059;48.538;12.146;2022-09-09T00:41:25;1.77;;;1.70;;
4089;SDS011;2059;48.538;12.146;2022-09-09T00:46:37;1.70;;;1.70;;
4089;SDS011;2059;48.538;12.146;2022-09-09T00:51:53;1.50;;;1.50;;
4089;SDS011;2059;48.538;12.146;2022-09-09T00:57:07;1.57;;;1.57;;
4089;SDS011;2059;48.538;12.146;2022-09-09T01:02:27;3.30;;;3.20;;
4089;SDS011;2059;48.538;12.146;2022-09-09T01:07:30;4.37;;;4.27;;
4089;SDS011;2059;48.538;12.146;2022-09-09T01:17:40;2.40;;;1.67;;
4089;SDS011;2059;48.538;12.146;2022-09-09T01:23:02;1.50;;;1.50;;
4089;SDS011;2059;48.538;12.146;2022-09-09T01:28:13;1.50;;;1.50;;
4089;SDS011;2059;48.538;12.146;2022-09-09T01:33:18;1.50;;;1.50;;
4089;SDS011;2059;48.538;12.146;2022-09-09T01:38:20;1.83;;;1.80;;
4089;SDS011;2059;48.538;12.146;2022-09-09T01:43:25;1.60;;;1.60;;
4089;SDS011;2059;48.538;12.146;2022-09-09T01:48:28;1.80;;;1.80;;
4089;SDS011;2059;48.538;12.146;2022-09-09T01:53:31;1.97;;;1.87;;
4089;SDS011;2059;48.538;12.146;2022-09-09T01:58:37;1.97;;;1.87;;
4089;SDS011;2059;48.538;12.146;2022-09-09T02:04:03;1.50;;;1.50;;
4089;SDS011;2059;48.538;12.146;2022-09-09T02:09:10;4.80;;;4.60;;
4089;SDS011;2059;48.538;12.146;2022-09-09T02:14:16;1.60;;;1.60;;
4089;SDS011;2059;48.538;12.146;2022-09-09T02:19:24;1.50;;;1.50;;
4089;SDS011;2059;48.538;12.146;2022-09-09T02:24:30;1.60;;;1.60;;
4089;SDS011;2059;48.538;12.146;2022-09-09T02:29:37;1.60;;;1.60;;
4089;SDS011;2059;48.538;12.146;2022-09-09T02:34:43;1.43;;;1.43;;
4089;SDS011;2059;48.538;12.146;2022-09-09T02:39:46;1.50;;;1.50;;
4089;SDS011;2059;48.538;12.146;2022-09-09T02:44:50;1.40;;;1.40;;
4089;SDS011;2059;48.538;12.146;2022-09-09T02:49:59;1.63;;;1.63;;
4089;SDS011;2059;48.538;12.146;2022-09-09T02:55:10;1.50;;;1.50;;
4089;SDS011;2059;48.538;12.146;2022-09-09T03:00:23;1.60;;;1.60;;
4089;SDS011;2059;48.538;12.146;2022-09-09T03:05:26;1.60;;;1.60;;
4089;SDS011;2059;48.538;12.146;2022-09-09T03:10:28;1.60;;;1.60;;
4089;SDS011;2059;48.538;12.146;2022-09-09T03:15:31;1.67;;;1.67;;
4089;SDS011;2059;48.538;12.146;2022-09-09T03:20:33;1.50;;;1.50;;
4089;SDS011;2059;48.538;12.146;2022-09-09T03:25:35;1.50;;;1.50;;
4089;SDS011;2059;48.538;12.146;2022-09-09T03:30:39;1.60;;;1.50;;
4089;SDS011;2059;48.538;12.146;2022-09-09T03:35:44;1.50;;;1.50;;
4089;SDS011;2059;48.538;12.146;2022-09-09T03:40:49;1.40;;;1.40;;
4089;SDS011;2059;48.538;12.146;2022-09-09T03:45:55;1.80;;;1.80;;
4089;SDS011;2059;48.538;12.146;2022-09-09T03:50:56;1.50;;;1.50;;
4089;SDS011;2059;48.538;12.146;2022-09-09T03:56:01;1.50;;;1.50;;
4089;SDS011;2059;48.538;12.146;2022-09-09T04:01:06;1.50;;;1.50;;
4089;SDS011;2059;48.538;12.146;2022-09-09T04:06:13;4.10;;;4.00;;
4089;SDS011;2059;48.538;12.146;2022-09-09T04:11:16;4.00;;;3.90;;
4089;SDS011;2059;48.538;12.146;2022-09-09T04:16:20;1.40;;;1.40;;
4089;SDS011;2059;48.538;12.146;2022-09-09T04:21:21;1.50;;;1.50;;
4089;SDS011;2059;48.538;12.146;2022-09-09T04:26:23;1.40;;;1.40;;
4089;SDS011;2059;48.538;12.146;2022-09-09T04:31:26;1.70;;;1.60;;
4089;SDS011;2059;48.538;12.146;2022-09-09T04:36:29;1.50;;;1.50;;
4089;SDS011;2059;48.538;12.146;2022-09-09T04:41:31;5.17;;;4.97;;
4089;SDS011;2059;48.538;12.146;2022-09-09T04:46:34;1.60;;;1.60;;
4089;SDS011;2059;48.538;12.146;2022-09-09T04:51:36;1.77;;;1.77;;
4089;SDS011;2059;48.538;12.146;2022-09-09T04:56:38;1.70;;;1.70;;
4089;SDS011;2059;48.538;12.146;2022-09-09T05:01:43;1.67;;;1.67;;
4089;SDS011;2059;48.538;12.146;2022-09-09T05:06:44;1.67;;;1.67;;
4089;SDS011;2059;48.538;12.146;2022-09-09T05:11:46;2.00;;;2.00;;
4089;SDS011;2059;48.538;12.146;2022-09-09T05:16:50;2.20;;;2.20;;
4089;SDS011;2059;48.538;12.146;2022-09-09T05:21:51;1.93;;;1.83;;
4089;SDS011;2059;48.538;12.146;2022-09-09T05:26:53;1.80;;;1.80;;
4089;SDS011;2059;48.538;12.146;2022-09-09T05:32:01;1.63;;;1.63;;
4089;SDS011;2059;48.538;12.146;2022-09-09T05:37:03;1.70;;;1.70;;
4089;SDS011;2059;48.538;12.146;2022-09-09T05:42:05;1.60;;;1.60;;
4089;SDS011;2059;48.538;12.146;2022-09-09T05:47:08;4.90;;;4.70;;
4089;SDS011;2059;48.538;12.146;2022-09-09T05:52:10;4.70;;;4.60;;
4089;SDS011;2059;48.538;12.146;2022-09-09T05:57:12;5.43;;;5.23;;
4089;SDS011;2059;48.538;12.146;2022-09-09T06:02:15;4.80;;;4.70;;
4089;SDS011;2059;48.538;12.146;2022-09-09T06:07:17;4.77;;;4.53;;
4089;SDS011;2059;48.538;12.146;2022-09-09T06:12:18;4.60;;;4.50;;
4089;SDS011;2059;48.538;12.146;2022-09-09T06:17:22;4.90;;;4.70;;
4089;SDS011;2059;48.538;12.146;2022-09-09T06:22:23;5.20;;;4.90;;
4089;SDS011;2059;48.538;12.146;2022-09-09T06:27:26;4.87;;;4.77;;
4089;SDS011;2059;48.538;12.146;2022-09-09T06:32:31;4.97;;;4.77;;
4089;SDS011;2059;48.538;12.146;2022-09-09T06:37:36;5.13;;;4.93;;
4089;SDS011;2059;48.538;12.146;2022-09-09T06:42:38;4.80;;;4.60;;
4089;SDS011;2059;48.538;12.146;2022-09-09T06:47:41;5.10;;;4.90;;
4089;SDS011;2059;48.538;12.146;2022-09-09T06:52:45;4.80;;;4.70;;
4089;SDS011;2059;48.538;12.146;2022-09-09T06:57:48;4.80;;;4.60;;
4089;SDS011;2059;48.538;12.146;2022-09-09T07:02:52;5.33;;;5.03;;
4089;SDS011;2059;48.538;12.146;2022-09-09T07:07:54;4.83;;;4.63;;
4089;SDS011;2059;48.538;12.146;2022-09-09T07:12:55;5.33;;;5.13;;
4089;SDS011;2059;48.538;12.146;2022-09-09T07:18:01;5.20;;;5.00;;
4089;SDS011;2059;48.538;12.146;2022-09-09T07:23:03;5.17;;;4.97;;
4089;SDS011;2059;48.538;12.146;2022-09-09T07:28:05;5.10;;;4.90;;
4089;SDS011;2059;48.538;12.146;2022-09-09T07:33:09;5.23;;;5.03;;
4089;SDS011;2059;48.538;12.146;2022-09-09T07:38:11;5.40;;;5.20;;
4089;SDS011;2059;48.538;12.146;2022-09-09T07:43:13;5.20;;;5.00;;
4089;SDS011;2059;48.538;12.146;2022-09-09T07:48:20;5.20;;;5.00;;
4089;SDS011;2059;48.538;12.146;2022-09-09T07:53:21;5.20;;;5.00;;
4089;SDS011;2059;48.538;12.146;2022-09-09T07:58:23;5.30;;;5.10;;
4089;SDS011;2059;48.538;12.146;2022-09-09T08:03:26;4.97;;;4.80;;
4089;SDS011;2059;48.538;12.146;2022-09-09T08:08:28;5.00;;;4.80;;
4089;SDS011;2059;48.538;12.146;2022-09-09T08:13:30;5.20;;;5.00;;
4089;SDS011;2059;48.538;12.146;2022-09-09T08:18:34;5.23;;;5.03;;
4089;SDS011;2059;48.538;12.146;2022-09-09T08:23:36;5.03;;;4.83;;
4089;SDS011;2059;48.538;12.146;2022-09-09T08:28:38;4.90;;;4.70;;
4089;SDS011;2059;48.538;12.146;2022-09-09T08:33:43;5.10;;;4.90;;
4089;SDS011;2059;48.538;12.146;2022-09-09T08:38:47;5.13;;;4.93;;
4089;SDS011;2059;48.538;12.146;2022-09-09T08:43:50;4.70;;;4.60;;
4089;SDS011;2059;48.538;12.146;2022-09-09T08:49:02;5.10;;;4.90;;
4089;SDS011;2059;48.538;12.146;2022-09-09T08:54:08;1.43;;;1.43;;
4089;SDS011;2059;48.538;12.146;2022-09-09T08:59:11;1.80;;;1.70;;
4089;SDS011;2059;48.538;12.146;2022-09-09T09:04:28;1.30;;;1.30;;
4089;SDS011;2059;48.538;12.146;2022-09-09T09:09:40;1.50;;;1.50;;
4089;SDS011;2059;48.538;12.146;2022-09-09T09:14:47;1.40;;;1.40;;
4089;SDS011;2059;48.538;12.146;2022-09-09T09:19:51;1.50;;;1.50;;
4089;SDS011;2059;48.538;12.146;2022-09-09T09:24:53;1.50;;;1.50;;
4089;SDS011;2059;48.538;12.146;2022-09-09T09:29:57;1.40;;;1.40;;
4089;SDS011;2059;48.538;12.146;2022-09-09T09:35:04;1.50;;;1.50;;
4089;SDS011;2059;48.538;12.146;2022-09-09T09:40:14;1.40;;;1.40;;
4089;SDS011;2059;48.538;12.146;2022-09-09T09:45:20;1.37;;;1.37;;
4089;SDS011;2059;48.538;12.146;2022-09-09T09:50:32;1.50;;;1.50;;
4089;SDS011;2059;48.538;12.146;2022-09-09T09:55:34;1.80;;;1.70;;
4089;SDS011;2059;48.538;12.146;2022-09-09T10:00:37;1.87;;;1.83;;
4089;SDS011;2059;48.538;12.146;2022-09-09T10:05:50;1.87;;;1.80;;
4089;SDS011;2059;48.538;12.146;2022-09-09T10:10:55;1.73;;;1.73;;
4089;SDS011;2059;48.538;12.146;2022-09-09T10:16:08;1.73;;;1.70;;
4089;SDS011;2059;48.538;12.146;2022-09-09T10:21:27;1.60;;;1.60;;
4089;SDS011;2059;48.538;12.146;2022-09-09T10:26:47;1.50;;;1.50;;
4089;SDS011;2059;48.538;12.146;2022-09-09T10:31:57;1.70;;;1.70;;
4089;SDS011;2059;48.538;12.146;2022-09-09T10:37:15;1.60;;;1.60;;
4089;SDS011;2059;48.538;12.146;2022-09-09T10:42:23;1.50;;;1.50;;
4089;SDS011;2059;48.538;12.146;2022-09-09T10:47:35;1.47;;;1.47;;
4089;SDS011;2059;48.538;12.146;2022-09-09T10:52:47;1.50;;;1.50;;
4089;SDS011;2059;48.538;12.146;2022-09-09T10:57:57;1.40;;;1.40;;
4089;SDS011;2059;48.538;12.146;2022-09-09T11:03:01;1.60;;;1.60;;
4089;SDS011;2059;48.538;12.146;2022-09-09T11:08:06;1.50;;;1.50;;
4089;SDS011;2059;48.538;12.146;2022-09-09T11:13:14;1.60;;;1.60;;
4089;SDS011;2059;48.538;12.146;2022-09-09T11:18:21;1.47;;;1.47;;
4089;SDS011;2059;48.538;12.146;2022-09-09T11:23:26;1.60;;;1.60;;
4089;SDS011;2059;48.538;12.146;2022-09-09T11:28:39;4.60;;;4.50;;
4089;SDS011;2059;48.538;12.146;2022-09-09T11:33:51;2.30;;;2.20;;
4089;SDS011;2059;48.538;12.146;2022-09-09T11:39:07;2.57;;;2.57;;
4089;SDS011;2059;48.538;12.146;2022-09-09T11:44:26;1.80;;;1.80;;
4089;SDS011;2059;48.538;12.146;2022-09-09T11:49:39;1.90;;;1.90;;
4089;SDS011;2059;48.538;12.146;2022-09-09T11:54:47;3.57;;;3.47;;
4089;SDS011;2059;48.538;12.146;2022-09-09T12:04:48;1.80;;;1.80;;
4089;SDS011;2059;48.538;12.146;2022-09-09T12:09:58;1.73;;;1.73;;
4089;SDS011;2059;48.538;12.146;2022-09-09T12:15:17;5.83;;;5.63;;
4089;SDS011;2059;48.538;12.146;2022-09-09T12:20:32;5.33;;;5.13;;
4089;SDS011;2059;48.538;12.146;2022-09-09T12:25:40;3.53;;;3.43;;
4089;SDS011;2059;48.538;12.146;2022-09-09T12:30:52;2.40;;;2.40;;
4089;SDS011;2059;48.538;12.146;2022-09-09T12:36:01;1.90;;;1.90;;
4089;SDS011;2059;48.538;12.146;2022-09-09T12:41:06;5.50;;;5.30;;
4089;SDS011;2059;48.538;12.146;2022-09-09T12:46:24;5.60;;;5.40;;
4089;SDS011;2059;48.538;12.146;2022-09-09T12:51:35;6.10;;;5.90;;
4089;SDS011;2059;48.538;12.146;2022-09-09T12:56:37;5.67;;;5.47;;
4089;SDS011;2059;48.538;12.146;2022-09-09T13:01:39;5.33;;;5.13;;
4089;SDS011;2059;48.538;12.146;2022-09-09T13:06:42;5.90;;;5.70;;
4089;SDS011;2059;48.538;12.146;2022-09-09T13:11:45;6.03;;;5.83;;
4089;SDS011;2059;48.538;12.146;2022-09-09T13:16:54;3.10;;;3.00;;
4089;SDS011;2059;48.538;12.146;2022-09-09T13:21:59;3.57;;;3.47;;
4089;SDS011;2059;48.538;12.146;2022-09-09T13:27:23;3.80;;;3.70;;
4089;SDS011;2059;48.538;12.146;2022-09-09T13:32:29;3.90;;;3.80;;
4089;SDS011;2059;48.538;12.146;2022-09-09T13:37:33;3.80;;;3.70;;
4089;SDS011;2059;48.538;12.146;2022-09-09T13:42:38;4.20;;;4.10;;
4089;SDS011;2059;48.538;12.146;2022-09-09T13:47:43;3.80;;;3.70;;
4089;SDS011;2059;48.538;12.146;2022-09-09T13:52:46;3.97;;;3.87;;
4089;SDS011;2059;48.538;12.146;2022-09-09T13:57:52;3.53;;;3.43;;
4089;SDS011;2059;48.538;12.146;2022-09-09T14:02:55;5.50;;;5.30;;
4089;SDS011;2059;48.538;12.146;2022-09-09T14:07:58;5.50;;;5.30;;
4089;SDS011;2059;48.538;12.146;2022-09-09T14:13:00;5.50;;;5.30;;
4089;SDS011;2059;48.538;12.146;2022-09-09T14:18:03;5.30;;;5.10;;
4089;SDS011;2059;48.538;12.146;2022-09-09T14:23:07;5.43;;;5.23;;
4089;SDS011;2059;48.538;12.146;2022-09-09T14:28:12;5.60;;;5.40;;
4089;SDS011;2059;48.538;12.146;2022-09-09T14:33:15;4.77;;;4.63;;
4089;SDS011;2059;48.538;12.146;2022-09-09T14:38:18;5.27;;;5.07;;
4089;SDS011;2059;48.538;12.146;2022-09-09T14:43:20;5.63;;;5.43;;
4089;SDS011;2059;48.538;12.146;2022-09-09T14:48:22;5.40;;;5.20;;
4089;SDS011;2059;48.538;12.146;2022-09-09T14:53:25;5.77;;;5.57;;
4089;SDS011;2059;48.538;12.146;2022-09-09T14:58:29;5.80;;;5.60;;
4089;SDS011;2059;48.538;12.146;2022-09-09T15:03:31;4.20;;;4.10;;
4089;SDS011;2059;48.538;12.146;2022-09-09T15:08:36;5.70;;;5.50;;
4089;SDS011;2059;48.538;12.146;2022-09-09T15:13:39;5.07;;;4.87;;
4089;SDS011;2059;48.538;12.146;2022-09-09T15:18:42;4.20;;;4.10;;
4089;SDS011;2059;48.538;12.146;2022-09-09T15:23:47;3.73;;;3.63;;
4089;SDS011;2059;48.538;12.146;2022-09-09T15:28:49;3.77;;;3.67;;
4089;SDS011;2059;48.538;12.146;2022-09-09T15:33:52;3.87;;;3.77;;
4089;SDS011;2059;48.538;12.146;2022-09-09T15:39:02;4.20;;;4.10;;
4089;SDS011;2059;48.538;12.146;2022-09-09T15:44:05;3.43;;;3.33;;
4089;SDS011;2059;48.538;12.146;2022-09-09T15:49:08;3.40;;;3.30;;
4089;SDS011;2059;48.538;12.146;2022-09-09T15:54:13;3.20;;;3.10;;
4089;SDS011;2059;48.538;12.146;2022-09-09T15:59:17;3.33;;;3.23;;
4089;SDS011;2059;48.538;12.146;2022-09-09T16:04:19;3.40;;;3.30;;
4089;SDS011;2059;48.538;12.146;2022-09-09T16:09:25;5.90;;;5.70;;
4089;SDS011;2059;48.538;12.146;2022-09-09T16:14:27;5.60;;;5.40;;
4089;SDS011;2059;48.538;12.146;2022-09-09T16:19:34;5.77;;;5.57;;
4089;SDS011;2059;48.538;12.146;2022-09-09T16:24:37;5.40;;;5.20;;
4089;SDS011;2059;48.538;12.146;2022-09-09T16:29:39;3.40;;;3.30;;
4089;SDS011;2059;48.538;12.146;2022-09-09T16:34:41;3.73;;;3.63;;
4089;SDS011;2059;48.538;12.146;2022-09-09T16:39:44;3.30;;;3.20;;
4089;SDS011;2059;48.538;12.146;2022-09-09T16:44:46;2.50;;;2.50;;
4089;SDS011;2059;48.538;12.146;2022-09-09T16:49:50;2.60;;;2.60;;
4089;SDS011;2059;48.538;12.146;2022-09-09T16:54:53;2.33;;;2.33;;
4089;SDS011;2059;48.538;12.146;2022-09-09T16:59:55;2.40;;;2.40;;
4089;SDS011;2059;48.538;12.146;2022-09-09T17:04:59;2.63;;;2.60;;
4089;SDS011;2059;48.538;12.146;2022-09-09T17:10:02;2.80;;;2.70;;
4089;SDS011;2059;48.538;12.146;2022-09-09T17:15:06;2.50;;;2.50;;
4089;SDS011;2059;48.538;12.146;2022-09-09T17:20:09;2.20;;;2.20;;
4089;SDS011;2059;48.538;12.146;2022-09-09T17:25:12;2.70;;;2.70;;
4089;SDS011;2059;48.538;12.146;2022-09-09T17:30:14;2.37;;;2.37;;
4089;SDS011;2059;48.538;12.146;2022-09-09T17:35:16;2.43;;;2.43;;
4089;SDS011;2059;48.538;12.146;2022-09-09T17:40:20;2.67;;;2.67;;
4089;SDS011;2059;48.538;12.146;2022-09-09T17:45:22;1.70;;;1.70;;
4089;SDS011;2059;48.538;12.146;2022-09-09T17:50:25;1.60;;;1.60;;
4089;SDS011;2059;48.538;12.146;2022-09-09T17:55:28;4.50;;;4.40;;
4089;SDS011;2059;48.538;12.146;2022-09-09T18:00:30;1.90;;;1.90;;
4089;SDS011;2059;48.538;12.146;2022-09-09T18:05:31;2.97;;;2.87;;
4089;SDS011;2059;48.538;12.146;2022-09-09T18:10:35;2.13;;;2.10;;
4089;SDS011;2059;48.538;12.146;2022-09-09T18:15:36;5.10;;;4.90;;
4089;SDS011;2059;48.538;12.146;2022-09-09T18:20:38;5.30;;;5.10;;
4089;SDS011;2059;48.538;12.146;2022-09-09T18:25:42;1.77;;;1.77;;
4089;SDS011;2059;48.538;12.146;2022-09-09T18:30:45;1.70;;;1.70;;
4089;SDS011;2059;48.538;12.146;2022-09-09T18:35:48;1.77;;;1.77;;
4089;SDS011;2059;48.538;12.146;2022-09-09T18:40:51;4.70;;;4.50;;
4089;SDS011;2059;48.538;12.146;2022-09-09T18:45:53;1.70;;;1.70;;
4089;SDS011;2059;48.538;12.146;2022-09-09T18:50:55;1.70;;;1.70;;
4089;SDS011;2059;48.538;12.146;2022-09-09T18:55:58;1.77;;;1.77;;
4089;SDS011;2059;48.538;12.146;2022-09-09T19:01:01;1.60;;;1.60;;
4089;SDS011;2059;48.538;12.146;2022-09-09T19:06:06;1.67;;;1.67;;
4089;SDS011;2059;48.538;12.146;2022-09-09T19:11:10;1.53;;;1.53;;
4089;SDS011;2059;48.538;12.146;2022-09-09T19:16:15;1.70;;;1.70;;
4089;SDS011;2059;48.538;12.146;2022-09-09T19:21:18;1.60;;;1.60;;
4089;SDS011;2059;48.538;12.146;2022-09-09T19:26:23;1.50;;;1.50;;
4089;SDS011;2059;48.538;12.146;2022-09-09T19:31:26;1.57;;;1.57;;
4089;SDS011;2059;48.538;12.146;2022-09-09T19:36:29;1.63;;;1.63;;
4089;SDS011;2059;48.538;12.146;2022-09-09T19:41:32;1.40;;;1.40;;
4089;SDS011;2059;48.538;12.146;2022-09-09T19:46:35;1.60;;;1.60;;
4089;SDS011;2059;48.538;12.146;2022-09-09T19:51:38;1.50;;;1.50;;
4089;SDS011;2059;48.538;12.146;2022-09-09T19:56:41;1.70;;;1.70;;
4089;SDS011;2059;48.538;12.146;2022-09-09T20:01:44;1.50;;;1.50;;
4089;SDS011;2059;48.538;12.146;2022-09-09T20:06:46;1.60;;;1.60;;
4089;SDS011;2059;48.538;12.146;2022-09-09T20:11:49;2.60;;;2.50;;
4089;SDS011;2059;48.538;12.146;2022-09-09T20:16:52;1.67;;;1.67;;
4089;SDS011;2059;48.538;12.146;2022-09-09T20:21:54;1.80;;;1.80;;
4089;SDS011;2059;48.538;12.146;2022-09-09T20:26:59;3.70;;;3.60;;
4089;SDS011;2059;48.538;12.146;2022-09-09T20:32:01;2.03;;;2.03;;
4089;SDS011;2059;48.538;12.146;2022-09-09T20:37:04;1.87;;;1.80;;
4089;SDS011;2059;48.538;12.146;2022-09-09T20:42:08;1.80;;;1.80;;
4089;SDS011;2059;48.538;12.146;2022-09-09T20:47:10;1.60;;;1.60;;
4089;SDS011;2059;48.538;12.146;2022-09-09T20:52:12;1.60;;;1.60;;
4089;SDS011;2059;48.538;12.146;2022-09-09T20:57:15;1.70;;;1.70;;
4089;SDS011;2059;48.538;12.146;2022-09-09T21:02:21;1.70;;;1.70;;
4089;SDS011;2059;48.538;12.146;2022-09-09T21:07:22;2.00;;;2.00;;
4089;SDS011;2059;48.538;12.146;2022-09-09T21:12:26;1.70;;;1.70;;
4089;SDS011;2059;48.538;12.146;2022-09-09T21:17:27;1.60;;;1.60;;
4089;SDS011;2059;48.538;12.146;2022-09-09T21:22:29;1.90;;;1.90;;
4089;SDS011;2059;48.538;12.146;2022-09-09T21:27:32;1.57;;;1.57;;
4089;SDS011;2059;48.538;12.146;2022-09-09T21:32:34;2.20;;;2.17;;
4089;SDS011;2059;48.538;12.146;2022-09-09T21:37:36;3.80;;;3.70;;
4089;SDS011;2059;48.538;12.146;2022-09-09T21:42:39;1.60;;;1.60;;
4089;SDS011;2059;48.538;12.146;2022-09-09T21:47:43;1.70;;;1.70;;
4089;SDS011;2059;48.538;12.146;2022-09-09T21:52:45;1.60;;;1.60;;
4089;SDS011;2059;48.538;12.146;2022-09-09T21:57:49;1.70;;;1.70;;
4089;SDS011;2059;48.538;12.146;2022-09-09T22:02:50;1.70;;;1.70;;
4089;SDS011;2059;48.538;12.146;2022-09-09T22:07:52;1.60;;;1.60;;
4089;SDS011;2059;48.538;12.146;2022-09-09T22:12:55;2.30;;;2.30;;
4089;SDS011;2059;48.538;12.146;2022-09-09T22:17:58;1.50;;;1.50;;
4089;SDS011;2059;48.538;12.146;2022-09-09T22:23:02;1.80;;;1.80;;
4089;SDS011;2059;48.538;12.146;2022-09-09T22:28:06;1.60;;;1.60;;
4089;SDS011;2059;48.538;12.146;2022-09-09T22:33:08;1.60;;;1.60;;
4089;SDS011;2059;48.538;12.146;2022-09-09T22:38:11;1.63;;;1.63;;
4089;SDS011;2059;48.538;12.146;2022-09-09T22:43:15;1.70;;;1.60;;
4089;SDS011;2059;48.538;12.146;2022-09-09T22:48:18;1.50;;;1.50;;
4089;SDS011;2059;48.538;12.146;2022-09-09T22:53:20;1.70;;;1.70;;
4089;SDS011;2059;48.538;12.146;2022-09-09T22:58:23;2.27;;;2.27;;
4089;SDS011;2059;48.538;12.146;2022-09-09T23:03:25;1.50;;;1.50;;
4089;SDS011;2059;48.538;12.146;2022-09-09T23:08:29;1.47;;;1.47;;
4089;SDS011;2059;48.538;12.146;2022-09-09T23:13:34;1.50;;;1.50;;
4089;SDS011;2059;48.538;12.146;2022-09-09T23:18:36;1.50;;;1.50;;
4089;SDS011;2059;48.538;12.146;2022-09-09T23:23:39;1.60;;;1.60;;
4089;SDS011;2059;48.538;12.146;2022-09-09T23:28:43;1.67;;;1.67;;
4089;SDS011;2059;48.538;12.146;2022-09-09T23:33:46;1.60;;;1.60;;
4089;SDS011;2059;48.538;12.146;2022-09-09T23:38:47;1.60;;;1.60;;
4089;SDS011;2059;48.538;12.146;2022-09-09T23:43:52;1.47;;;1.47;;
4089;SDS011;2059;48.538;12.146;2022-09-09T23:48:54;1.50;;;1.50;;
4089;SDS011;2059;48.538;12.146;2022-09-09T23:53:58;1.50;;;1.50;;
4089;SDS011;2059;48.538;12.146;2022-09-09T23:59:03;1.60;;;1.50;;
